createdAt,value
2023-04-09T00:03:05.584Z,86.89
2023-04-09T00:08:08.024Z,86.95
2023-04-09T00:13:10.270Z,87.28
2023-04-09T00:18:12.912Z,87.10
2023-04-09T00:23:14.998Z,87.38
2023-04-09T00:28:17.212Z,87.25
2023-04-09T00:33:19.347Z,87.18
2023-04-09T00:38:21.522Z,87.18
2023-04-09T00:43:23.644Z,86.99
2023-04-09T00:48:26.257Z,87.03
2023-04-09T00:53:28.620Z,86.82
2023-04-09T00:58:30.840Z,86.94
2023-04-09T01:03:33.076Z,87.03
2023-04-09T01:08:48.169Z,87.11
2023-04-09T01:14:08.745Z,87.17
2023-04-09T01:19:27.447Z,86.92
2023-04-09T01:24:40.491Z,86.88
2023-04-09T01:29:48.026Z,87.13
2023-04-09T01:34:51.387Z,87.43
2023-04-09T01:39:53.768Z,87.49
2023-04-09T01:44:56.694Z,87.53
2023-04-09T01:49:59.135Z,87.41
2023-04-09T01:55:01.213Z,87.10
2023-04-09T02:00:04.868Z,87.18
2023-04-09T02:05:12.105Z,87.24
2023-04-09T02:10:17.307Z,87.59
2023-04-09T02:15:21.612Z,87.84
2023-04-09T02:20:24.714Z,87.90
2023-04-09T02:25:27.778Z,87.81
2023-04-09T02:30:29.808Z,87.85
2023-04-09T02:35:31.895Z,88.02
2023-04-09T02:40:33.962Z,88.13
2023-04-09T02:45:36.264Z,88.36
2023-04-09T02:50:38.326Z,88.48
2023-04-09T02:55:40.575Z,88.23
2023-04-09T03:00:42.660Z,88.27
2023-04-09T03:05:44.957Z,88.08
2023-04-09T03:10:47.084Z,88.21
2023-04-09T03:15:55.480Z,88.18
2023-04-09T03:20:57.596Z,88.26
2023-04-09T03:26:06.347Z,88.12
2023-04-09T03:31:08.455Z,88.11
2023-04-09T03:36:10.708Z,88.15
2023-04-09T03:41:12.785Z,88.48
2023-04-09T03:46:16.237Z,88.50
2023-04-09T03:51:18.871Z,88.18
2023-04-09T03:56:21.278Z,87.90
2023-04-09T04:01:23.336Z,88.11
2023-04-09T04:06:25.715Z,88.11
2023-04-09T04:11:27.800Z,87.96
2023-04-09T04:16:29.926Z,88.06
2023-04-09T04:21:32.103Z,88.29
2023-04-09T04:26:34.238Z,88.26
2023-04-09T04:31:36.420Z,88.27
2023-04-09T04:36:38.576Z,88.17
2023-04-09T04:41:40.684Z,87.84
2023-04-09T04:46:42.749Z,87.85
2023-04-09T04:51:44.800Z,87.84
2023-04-09T04:56:46.870Z,87.69
2023-04-09T05:01:48.969Z,87.53
2023-04-09T05:06:51.175Z,87.50
2023-04-09T05:11:53.243Z,87.40
2023-04-09T05:16:55.327Z,87.09
2023-04-09T05:21:57.434Z,86.78
2023-04-09T05:26:59.509Z,86.68
2023-04-09T05:32:01.711Z,86.24
2023-04-09T05:37:03.770Z,85.91
2023-04-09T05:42:05.851Z,85.71
2023-04-09T05:47:07.995Z,84.75
2023-04-09T05:52:10.091Z,84.80
2023-04-09T05:57:12.182Z,85.09
2023-04-09T06:02:14.381Z,84.12
2023-04-09T06:07:17.603Z,83.86
2023-04-09T06:12:19.642Z,84.09
2023-04-09T06:17:21.768Z,84.16
2023-04-09T06:22:23.881Z,83.77
2023-04-09T06:27:26.655Z,83.36
2023-04-09T06:32:28.729Z,83.71
2023-04-09T06:37:30.908Z,83.16
2023-04-09T06:42:33.047Z,82.90
2023-04-09T06:47:37.934Z,82.61
2023-04-09T06:52:40.505Z,82.34
2023-04-09T06:57:42.728Z,81.66
2023-04-09T07:02:45.244Z,80.77
2023-04-09T07:07:47.472Z,80.21
2023-04-09T07:12:49.556Z,79.97
2023-04-09T07:17:51.759Z,78.60
2023-04-09T07:22:53.878Z,77.99
2023-04-09T07:27:56.322Z,77.79
2023-04-09T07:32:58.485Z,77.00
2023-04-09T07:38:00.904Z,76.01
2023-04-09T07:43:03.064Z,75.70
2023-04-09T07:48:05.447Z,74.39
2023-04-09T07:53:07.720Z,72.90
2023-04-09T07:58:09.837Z,72.10
2023-04-09T08:03:12.783Z,70.91
2023-04-09T08:08:15.023Z,70.48
2023-04-09T08:13:17.137Z,68.92
2023-04-09T08:18:19.258Z,67.68
2023-04-09T08:23:28.095Z,66.88
2023-04-09T08:28:30.257Z,67.25
2023-04-09T08:33:32.334Z,67.08
2023-04-09T08:38:34.361Z,66.56
2023-04-09T08:43:56.113Z,66.18
2023-04-09T08:48:59.899Z,65.08
2023-04-09T08:54:04.730Z,64.97
2023-04-09T08:59:07.355Z,65.02
2023-04-09T09:04:10.099Z,63.89
2023-04-09T09:09:14.110Z,62.66
2023-04-09T09:14:18.212Z,63.54
2023-04-09T09:19:26.727Z,62.76
2023-04-09T09:24:29.331Z,63.47
2023-04-09T09:29:31.902Z,63.70
2023-04-09T09:34:34.349Z,62.04
2023-04-09T09:39:45.559Z,60.72
2023-04-09T09:44:48.406Z,62.11
2023-04-09T09:49:51.509Z,61.84
2023-04-09T09:54:55.810Z,61.87
2023-04-09T10:00:04.200Z,63.44
2023-04-09T10:05:08.756Z,63.59
2023-04-09T10:10:11.497Z,64.18
2023-04-09T10:15:13.816Z,64.01
2023-04-09T10:20:32.570Z,63.92
2023-04-09T10:25:34.680Z,64.13
2023-04-09T10:30:37.467Z,64.15
2023-04-09T10:35:39.902Z,63.73
2023-04-09T10:40:51.547Z,62.46
2023-04-09T10:45:57.860Z,62.64
2023-04-09T10:51:05.482Z,61.73
2023-04-09T10:56:16.277Z,61.65
2023-04-09T11:01:22.644Z,61.00
2023-04-09T11:06:25.007Z,61.25
2023-04-09T11:11:28.320Z,61.15
2023-04-09T11:16:31.808Z,62.52
2023-04-09T11:21:35.485Z,62.35
2023-04-09T11:26:37.939Z,62.89
2023-04-09T11:31:44.468Z,62.19
2023-04-09T11:36:49.545Z,62.51
2023-04-09T11:41:52.096Z,62.77
2023-04-09T11:46:54.597Z,61.87
2023-04-09T11:51:58.461Z,60.77
2023-04-09T11:57:01.833Z,60.52
2023-04-09T12:02:06.742Z,59.88
2023-04-09T12:07:10.089Z,59.75
2023-04-09T12:12:12.267Z,59.25
2023-04-09T12:17:14.376Z,58.27
2023-04-09T12:22:16.476Z,56.84
2023-04-09T12:27:18.553Z,55.49
2023-04-09T12:32:20.649Z,53.54
2023-04-09T12:37:22.846Z,53.16
2023-04-09T12:42:24.977Z,52.01
2023-04-09T12:47:27.550Z,52.09
2023-04-09T12:52:29.735Z,50.93
2023-04-09T12:57:31.994Z,50.77
2023-04-09T13:02:34.502Z,49.94
2023-04-09T13:07:36.787Z,48.71
2023-04-09T13:12:38.861Z,46.21
2023-04-09T13:17:41.061Z,44.38
2023-04-09T13:22:47.011Z,43.33
2023-04-09T13:27:49.165Z,40.72
2023-04-09T13:32:51.252Z,41.42
2023-04-09T13:37:53.324Z,43.85
2023-04-09T13:42:55.447Z,44.57
2023-04-09T13:47:57.763Z,44.67
2023-04-09T13:53:02.823Z,44.88
2023-04-09T13:58:04.910Z,44.45
2023-04-09T14:03:07.612Z,40.67
2023-04-09T14:08:10.104Z,39.04
2023-04-09T14:13:12.891Z,38.01
2023-04-09T14:18:15.024Z,36.15
2023-04-09T14:23:17.239Z,35.23
2023-04-09T14:28:19.967Z,35.27
2023-04-09T14:33:22.009Z,34.99
2023-04-09T14:38:24.239Z,35.43
2023-04-09T14:43:26.360Z,35.85
2023-04-09T14:48:28.485Z,34.62
2023-04-09T14:53:30.641Z,34.66
2023-04-09T14:58:32.691Z,35.46
2023-04-09T15:03:35.160Z,37.08
2023-04-09T15:08:37.468Z,40.20
2023-04-09T15:13:39.573Z,42.07
2023-04-09T15:18:41.806Z,43.89
2023-04-09T15:23:43.996Z,45.74
2023-04-09T15:28:46.281Z,46.64
2023-04-09T15:33:50.483Z,47.85
2023-04-09T15:38:55.729Z,48.25
2023-04-09T15:43:58.365Z,49.43
2023-04-09T15:49:00.487Z,50.38
2023-04-09T15:54:02.574Z,51.84
2023-04-09T15:59:05.465Z,52.93
2023-04-09T16:04:09.034Z,54.12
2023-04-09T16:09:11.340Z,53.79
2023-04-09T16:14:13.477Z,53.78
2023-04-09T16:19:18.672Z,54.60
2023-04-09T16:24:20.767Z,53.68
2023-04-09T16:29:22.833Z,53.85
2023-04-09T16:34:25.037Z,55.17
2023-04-09T16:39:27.153Z,56.05
2023-04-09T16:44:29.564Z,56.55
2023-04-09T16:49:31.884Z,56.83
2023-04-09T16:54:33.941Z,57.02
2023-04-09T16:59:36.551Z,57.33
2023-04-09T17:04:38.677Z,57.71
2023-04-09T17:09:40.932Z,57.42
2023-04-09T17:14:44.470Z,57.70
2023-04-09T17:19:46.568Z,57.53
2023-04-09T17:24:48.690Z,58.08
2023-04-09T17:29:50.810Z,58.05
2023-04-09T17:34:53.031Z,58.21
2023-04-09T17:39:55.139Z,58.60
2023-04-09T17:44:57.366Z,58.44
2023-04-09T17:50:00.016Z,58.71
2023-04-09T17:55:05.581Z,58.93
2023-04-09T18:00:08.830Z,59.26
2023-04-09T18:05:11.025Z,59.75
2023-04-09T18:10:13.247Z,60.05
2023-04-09T18:15:16.484Z,60.31
2023-04-09T18:20:18.619Z,60.69
2023-04-09T18:25:22.236Z,61.44
2023-04-09T18:30:26.264Z,61.81
2023-04-09T18:35:28.587Z,62.55
2023-04-09T18:40:30.752Z,63.35
2023-04-09T18:45:32.800Z,63.90
2023-04-09T18:50:35.049Z,64.43
2023-04-09T18:55:38.295Z,65.07
2023-04-09T19:00:40.907Z,65.39
2023-04-09T19:05:43.888Z,65.88
2023-04-09T19:10:47.560Z,66.26
2023-04-09T19:15:49.699Z,66.81
2023-04-09T19:20:52.232Z,67.27
2023-04-09T19:25:55.823Z,68.24
2023-04-09T19:30:59.270Z,68.46
2023-04-09T19:36:02.770Z,68.52
2023-04-09T19:41:05.393Z,68.99
2023-04-09T19:46:08.559Z,69.23
2023-04-09T19:51:17.864Z,69.52
2023-04-09T19:56:20.017Z,69.96
2023-04-09T20:01:22.196Z,69.85
2023-04-09T20:06:24.406Z,70.56
2023-04-09T20:11:26.512Z,71.45
2023-04-09T20:16:28.599Z,71.15
2023-04-09T20:21:31.022Z,71.29
2023-04-09T20:26:33.102Z,71.57
2023-04-09T20:31:36.130Z,71.63
2023-04-09T20:36:42.117Z,71.97
2023-04-09T20:41:44.209Z,71.67
2023-04-09T20:46:46.333Z,72.26
2023-04-09T20:51:48.385Z,72.20
2023-04-09T20:56:51.361Z,72.77
2023-04-09T21:01:55.629Z,72.96
2023-04-09T21:06:57.840Z,73.51
2023-04-09T21:12:02.535Z,73.81
2023-04-09T21:17:04.632Z,74.48
2023-04-09T21:22:07.011Z,74.60
2023-04-09T21:27:09.366Z,74.65
2023-04-09T21:32:11.555Z,74.50
2023-04-09T21:37:13.657Z,74.52
2023-04-09T21:42:15.926Z,74.60
2023-04-09T21:47:18.094Z,74.75
2023-04-09T21:52:20.217Z,74.88
2023-04-09T21:57:22.770Z,74.87
2023-04-09T22:02:25.045Z,75.32
2023-04-09T22:07:27.542Z,75.46
2023-04-09T22:12:29.741Z,75.26
2023-04-09T22:17:31.860Z,75.33
2023-04-09T22:22:34.332Z,75.45
2023-04-09T22:27:36.440Z,75.73
2023-04-09T22:32:38.556Z,75.72
2023-04-09T22:37:40.757Z,75.71
2023-04-09T22:42:44.019Z,76.27
2023-04-09T22:47:46.168Z,76.41
2023-04-09T22:52:48.513Z,76.70
2023-04-09T22:57:50.542Z,77.02
2023-04-09T23:02:52.819Z,77.08
2023-04-09T23:07:55.302Z,77.45
2023-04-09T23:12:57.517Z,77.67
2023-04-09T23:17:59.620Z,77.57
2023-04-09T23:23:02.235Z,77.77
2023-04-09T23:28:04.280Z,78.01
2023-04-09T23:33:06.399Z,78.16
2023-04-09T23:38:08.441Z,78.64
2023-04-09T23:43:11.000Z,78.70
2023-04-09T23:48:13.081Z,78.60
2023-04-09T23:53:16.190Z,78.72
2023-04-09T23:58:18.912Z,78.97
